BNG weather

Banning Municipal Airport
Banning, California, United States

Public forecast

Using degrees Fahrenheit for public forecast. Weather courtesy of forecast.io.

METAR (pilot weather report)

Closest report is Palm Springs International Airport, 18.0 nm (33.4 km) ESE. Retrieved 2019/06/18 01:53 UTC (8 minutes ago):

KPSP 180153Z 32017KT 10SM CLR 34/13 A2969 RMK AO2 SLP049 T03390128

TAF (pilot weather forecast)

Forecast is more than 12 hours old.

Closest forecast is Palm Springs International Airport, 18.0 nm (33.4 km) ESE. Retrieved 2019/06/17 00:36 UTC (1 day ago):

TAF KPSP 172332Z 1800/1824 33017G26KT P6SM SKC FM180600 VRB05KT P6SM SKC FM181900 13008KT P6SM SKC